createdAt,value
2017-05-18T00:01:25.445Z,1012.39
2017-05-18T00:02:25.470Z,1012.39
2017-05-18T00:03:25.494Z,1012.4
2017-05-18T00:04:25.520Z,1012.36
2017-05-18T00:05:25.546Z,1012.38
2017-05-18T00:06:25.572Z,1012.35
2017-05-18T00:07:25.594Z,1012.36
2017-05-18T00:08:25.621Z,1012.31
2017-05-18T00:09:25.646Z,1012.33
2017-05-18T00:10:25.670Z,1012.28
2017-05-18T00:11:25.696Z,1012.31
2017-05-18T00:12:25.721Z,1012.28
2017-05-18T00:13:25.747Z,1012.25
2017-05-18T00:14:25.771Z,1012.3
2017-05-18T00:15:25.797Z,1012.24
2017-05-18T00:17:25.846Z,1012.22
2017-05-18T00:18:25.872Z,1012.27
2017-05-18T00:19:25.897Z,1012.23
2017-05-18T00:20:25.923Z,1012.21
2017-05-18T00:21:25.947Z,1012.24
2017-05-18T00:22:25.972Z,1012.21
2017-05-18T00:23:25.998Z,1012.17
2017-05-18T00:24:26.023Z,1012.15
2017-05-18T00:25:26.047Z,1012.16
2017-05-18T00:26:26.072Z,1012.14
2017-05-18T00:27:26.098Z,1012.11
2017-05-18T00:28:26.123Z,1012.13
2017-05-18T00:29:26.148Z,1012.13
2017-05-18T00:30:26.175Z,1012.12
2017-05-18T00:31:26.198Z,1012.08
2017-05-18T00:33:26.248Z,1012.1
2017-05-18T00:34:26.273Z,1012.1
2017-05-18T00:35:26.297Z,1012.09
2017-05-18T00:36:26.322Z,1012.1
2017-05-18T00:37:26.347Z,1012.09
2017-05-18T00:38:26.375Z,1012.05
2017-05-18T00:39:26.398Z,1012.07
2017-05-18T00:40:26.423Z,1012.05
2017-05-18T00:41:26.447Z,1012.08
2017-05-18T00:42:26.474Z,1012.01
2017-05-18T00:43:26.497Z,1012.06
2017-05-18T00:44:26.523Z,1012.07
2017-05-18T00:45:26.547Z,1012.02
2017-05-18T00:46:26.576Z,1012.01
2017-05-18T00:47:26.597Z,1012
2017-05-18T00:49:26.648Z,1011.98
2017-05-18T00:50:26.673Z,1011.97
2017-05-18T00:51:26.697Z,1012
2017-05-18T00:52:26.722Z,1011.97
2017-05-18T00:53:26.747Z,1011.97
2017-05-18T00:54:26.772Z,1011.97
2017-05-18T00:55:26.796Z,1011.96
2017-05-18T00:56:26.822Z,1011.93
2017-05-18T00:57:26.847Z,1011.88
2017-05-18T00:58:26.871Z,1011.86
2017-05-18T00:59:26.896Z,1011.88
2017-05-18T01:00:26.921Z,1011.87
2017-05-18T01:01:26.947Z,1011.88
2017-05-18T01:02:26.972Z,1011.88
2017-05-18T01:04:27.022Z,1011.87
2017-05-18T01:05:27.046Z,1011.84
2017-05-18T01:06:27.072Z,1011.82
2017-05-18T01:07:27.096Z,1011.83
2017-05-18T01:08:27.122Z,1011.83
2017-05-18T01:09:27.146Z,1011.8
2017-05-18T01:10:27.171Z,1011.81
2017-05-18T01:11:27.196Z,1011.79
2017-05-18T01:12:27.220Z,1011.78
2017-05-18T01:13:27.247Z,1011.79
2017-05-18T01:14:27.269Z,1011.78
2017-05-18T01:15:27.296Z,1011.77
2017-05-18T01:16:27.319Z,1011.73
2017-05-18T01:17:27.345Z,1011.78
2017-05-18T01:18:27.370Z,1011.74
2017-05-18T01:19:27.395Z,1011.75
2017-05-18T01:20:27.419Z,1011.73
2017-05-18T01:21:27.443Z,1011.7
2017-05-18T01:22:27.469Z,1011.67
2017-05-18T01:23:27.493Z,1011.71
2017-05-18T01:24:27.517Z,1011.74
2017-05-18T01:25:27.543Z,1011.69
2017-05-18T01:26:27.567Z,1011.71
2017-05-18T01:27:27.592Z,1011.71
2017-05-18T01:28:27.617Z,1011.7
2017-05-18T01:29:27.642Z,1011.67
2017-05-18T01:30:27.666Z,1011.63
2017-05-18T01:31:27.693Z,1011.67
2017-05-18T01:32:27.716Z,1011.66
2017-05-18T01:33:27.741Z,1011.63
2017-05-18T01:34:27.765Z,1011.64
2017-05-18T01:36:27.815Z,1011.64
2017-05-18T01:37:27.840Z,1011.61
2017-05-18T01:38:27.863Z,1011.59
2017-05-18T01:39:27.889Z,1011.61
2017-05-18T01:40:27.913Z,1011.6
2017-05-18T01:41:27.938Z,1011.59
2017-05-18T01:42:27.962Z,1011.6
2017-05-18T01:43:27.987Z,1011.59
2017-05-18T01:44:28.012Z,1011.58
2017-05-18T01:45:28.036Z,1011.6
2017-05-18T01:46:28.061Z,1011.55
2017-05-18T01:47:28.085Z,1011.58
2017-05-18T01:48:28.111Z,1011.6
2017-05-18T01:49:28.134Z,1011.57
2017-05-18T01:50:28.159Z,1011.55
2017-05-18T01:52:28.208Z,1011.55
2017-05-18T01:53:28.237Z,1011.53
2017-05-18T01:54:28.258Z,1011.51
2017-05-18T01:55:28.283Z,1011.49
2017-05-18T01:56:28.307Z,1011.51
2017-05-18T01:57:28.332Z,1011.47
2017-05-18T01:58:28.356Z,1011.47
2017-05-18T01:59:28.382Z,1011.5
2017-05-18T02:00:28.405Z,1011.5
2017-05-18T02:01:28.430Z,1011.51
2017-05-18T02:02:28.457Z,1011.46
2017-05-18T02:03:28.480Z,1011.45
2017-05-18T02:04:28.503Z,1011.45
2017-05-18T02:05:28.528Z,1011.49
2017-05-18T02:06:28.554Z,1011.5
2017-05-18T02:08:28.602Z,1011.45
2017-05-18T02:09:28.626Z,1011.43
2017-05-18T02:10:28.650Z,1011.44
2017-05-18T02:11:28.675Z,1011.44
2017-05-18T02:12:28.699Z,1011.41
2017-05-18T02:13:28.724Z,1011.4
2017-05-18T02:14:28.749Z,1011.41
2017-05-18T02:15:28.773Z,1011.35
2017-05-18T02:16:28.798Z,1011.37
2017-05-18T02:17:28.822Z,1011.39
2017-05-18T02:18:28.846Z,1011.37
2017-05-18T02:19:28.871Z,1011.39
2017-05-18T02:20:28.896Z,1011.34
2017-05-18T02:21:28.925Z,1011.37
2017-05-18T02:22:28.944Z,1011.35
2017-05-18T02:24:28.993Z,1011.35
2017-05-18T02:25:29.018Z,1011.39
2017-05-18T02:26:29.041Z,1011.36
2017-05-18T02:27:29.066Z,1011.37
2017-05-18T02:28:29.090Z,1011.38
2017-05-18T02:29:29.117Z,1011.33
2017-05-18T02:30:29.138Z,1011.34
2017-05-18T02:31:29.164Z,1011.29
2017-05-18T02:32:29.188Z,1011.31
2017-05-18T02:33:29.211Z,1011.32
2017-05-18T02:34:29.236Z,1011.28
2017-05-18T02:35:29.261Z,1011.28
2017-05-18T02:36:29.286Z,1011.26
2017-05-18T02:37:29.312Z,1011.26
2017-05-18T02:39:29.359Z,1011.23
2017-05-18T02:40:29.383Z,1011.26
2017-05-18T02:41:29.407Z,1011.24
2017-05-18T02:42:29.433Z,1011.24
2017-05-18T02:43:29.456Z,1011.16
2017-05-18T02:44:29.480Z,1011.22
2017-05-18T02:45:29.505Z,1011.18
2017-05-18T02:46:29.529Z,1011.21
2017-05-18T02:47:29.552Z,1011.17
2017-05-18T02:48:29.577Z,1011.19
2017-05-18T02:49:29.602Z,1011.21
2017-05-18T02:50:29.626Z,1011.19
2017-05-18T02:51:29.649Z,1011.18
2017-05-18T02:52:29.674Z,1011.18
2017-05-18T02:53:29.699Z,1011.2
2017-05-18T02:54:29.723Z,1011.16
2017-05-18T02:55:29.747Z,1011.14
2017-05-18T02:56:29.771Z,1011.16
2017-05-18T02:57:29.795Z,1011.14
2017-05-18T02:58:29.819Z,1011.14
2017-05-18T02:59:29.843Z,1011.15
2017-05-18T03:00:29.868Z,1011.15
2017-05-18T03:01:29.892Z,1011.14
2017-05-18T03:02:29.915Z,1011.12
2017-05-18T03:03:29.940Z,1011.11
2017-05-18T03:04:29.964Z,1011.1
2017-05-18T03:05:29.990Z,1011.1
2017-05-18T03:06:30.014Z,1011.1
2017-05-18T03:07:30.037Z,1011.11
2017-05-18T03:08:30.061Z,1011.1
2017-05-18T03:09:30.085Z,1011.08
2017-05-18T03:11:30.133Z,1011.08
2017-05-18T03:12:30.158Z,1011.07
2017-05-18T03:13:30.181Z,1011.09
2017-05-18T03:14:30.206Z,1011.1
2017-05-18T03:15:30.230Z,1011.07
2017-05-18T03:16:30.254Z,1011.06
2017-05-18T03:17:30.279Z,1011.09
2017-05-18T03:18:30.302Z,1011.09
2017-05-18T03:19:30.327Z,1011.06
2017-05-18T03:20:30.349Z,1011.03
2017-05-18T03:21:30.374Z,1011.06
2017-05-18T03:22:30.399Z,1011.08
2017-05-18T03:23:30.422Z,1011.03
2017-05-18T03:24:30.446Z,1011.04
2017-05-18T03:25:30.470Z,1011.03
2017-05-18T03:27:30.519Z,1011.01
2017-05-18T03:28:30.543Z,1011.02
2017-05-18T03:29:30.567Z,1011
2017-05-18T03:30:30.591Z,1010.97
2017-05-18T03:31:30.614Z,1011
2017-05-18T03:32:30.639Z,1010.95
2017-05-18T03:33:30.663Z,1010.97
2017-05-18T03:34:30.688Z,1010.93
2017-05-18T03:35:30.711Z,1010.94
2017-05-18T03:36:30.735Z,1010.95
2017-05-18T03:37:30.759Z,1010.9
2017-05-18T03:38:30.783Z,1010.92
2017-05-18T03:39:30.807Z,1010.89
2017-05-18T03:40:30.832Z,1010.95
2017-05-18T03:41:30.855Z,1010.92
2017-05-18T03:43:30.903Z,1010.9
2017-05-18T03:44:30.927Z,1010.9
2017-05-18T03:45:30.951Z,1010.92
2017-05-18T03:46:30.975Z,1010.88
2017-05-18T03:47:31.004Z,1010.93
2017-05-18T03:48:31.023Z,1010.92
2017-05-18T03:49:31.047Z,1010.85
2017-05-18T03:50:31.071Z,1010.88
2017-05-18T03:51:31.096Z,1010.89
2017-05-18T03:52:31.119Z,1010.87
2017-05-18T03:53:31.143Z,1010.9
2017-05-18T03:54:31.168Z,1010.88
2017-05-18T03:55:31.192Z,1010.89
2017-05-18T03:56:31.217Z,1010.87
2017-05-18T03:57:31.240Z,1010.86
2017-05-18T03:59:31.289Z,1010.89
2017-05-18T04:00:31.312Z,1010.83
2017-05-18T04:01:31.336Z,1010.88
2017-05-18T04:02:31.360Z,1010.83
2017-05-18T04:03:31.386Z,1010.83
2017-05-18T04:04:31.409Z,1010.82
2017-05-18T04:05:31.432Z,1010.85
2017-05-18T04:06:31.458Z,1010.83
2017-05-18T04:07:31.482Z,1010.83
2017-05-18T04:08:31.505Z,1010.83
2017-05-18T04:09:31.530Z,1010.85
2017-05-18T04:10:31.554Z,1010.83
2017-05-18T04:11:31.579Z,1010.82
2017-05-18T04:12:31.604Z,1010.78
2017-05-18T04:14:31.652Z,1010.78
2017-05-18T04:15:31.676Z,1010.81
2017-05-18T04:16:31.700Z,1010.78
2017-05-18T04:17:31.725Z,1010.73
2017-05-18T04:18:31.750Z,1010.77
2017-05-18T04:19:31.774Z,1010.76
2017-05-18T04:20:31.798Z,1010.73
2017-05-18T04:21:31.822Z,1010.72
2017-05-18T04:22:31.846Z,1010.75
2017-05-18T04:23:31.873Z,1010.76
2017-05-18T04:24:31.896Z,1010.75
2017-05-18T04:25:31.920Z,1010.72
2017-05-18T04:26:31.945Z,1010.74
2017-05-18T04:27:31.969Z,1010.72
2017-05-18T04:28:31.993Z,1010.72
2017-05-18T04:29:32.017Z,1010.69
2017-05-18T04:30:32.041Z,1010.69
2017-05-18T04:31:32.068Z,1010.7
2017-05-18T04:32:32.091Z,1010.73
2017-05-18T04:33:32.115Z,1010.7
2017-05-18T04:34:32.139Z,1010.66
2017-05-18T04:35:32.167Z,1010.66
2017-05-18T04:36:32.188Z,1010.67
2017-05-18T04:37:32.211Z,1010.66
2017-05-18T04:38:32.236Z,1010.68
2017-05-18T04:39:32.260Z,1010.65
2017-05-18T04:40:32.286Z,1010.7
2017-05-18T04:41:32.309Z,1010.8
2017-05-18T04:42:32.334Z,1010.91
2017-05-18T04:43:32.359Z,1010.97
2017-05-18T04:44:32.383Z,1010.99
2017-05-18T04:46:32.433Z,1011.07
2017-05-18T04:47:32.461Z,1011.1
2017-05-18T04:48:32.484Z,1011.03
2017-05-18T04:49:32.510Z,1011
2017-05-18T04:50:32.537Z,1011.01
2017-05-18T04:51:32.566Z,1011.04
2017-05-18T04:52:32.591Z,1011.02
2017-05-18T04:53:32.619Z,1010.99
2017-05-18T04:54:32.646Z,1010.96
2017-05-18T04:55:32.673Z,1010.98
2017-05-18T04:56:32.702Z,1010.98
2017-05-18T04:57:32.731Z,1011.01
2017-05-18T04:58:32.761Z,1010.95
2017-05-18T04:59:32.790Z,1010.97
2017-05-18T05:00:32.820Z,1010.94
2017-05-18T05:02:32.882Z,1010.99
2017-05-18T05:03:32.913Z,1010.97
2017-05-18T05:04:32.942Z,1011.02
2017-05-18T05:05:32.974Z,1011.04
2017-05-18T05:06:33.004Z,1011.07
2017-05-18T05:07:33.036Z,1011.08
2017-05-18T05:08:33.068Z,1011.09
2017-05-18T05:09:33.101Z,1011.08
2017-05-18T05:10:33.132Z,1011.15
2017-05-18T05:11:33.165Z,1011.13
2017-05-18T05:12:33.199Z,1011.14
2017-05-18T05:13:33.231Z,1011.17
2017-05-18T05:14:33.264Z,1011.17
2017-05-18T05:15:33.298Z,1011.2
2017-05-18T05:16:33.332Z,1011.2
2017-05-18T05:18:33.398Z,1011.36
2017-05-18T05:19:33.433Z,1011.39
2017-05-18T05:20:33.467Z,1011.36
2017-05-18T05:21:33.501Z,1011.38
2017-05-18T05:22:33.588Z,1011.39
2017-05-18T05:23:33.571Z,1011.4
2017-05-18T05:24:33.606Z,1011.41
2017-05-18T05:25:33.640Z,1011.39
2017-05-18T05:26:33.675Z,1011.4
2017-05-18T05:27:33.711Z,1011.38
2017-05-18T05:28:33.745Z,1011.41
2017-05-18T05:29:33.781Z,1011.41
2017-05-18T05:30:33.818Z,1011.37
2017-05-18T05:31:33.853Z,1011.39
2017-05-18T05:32:33.888Z,1011.4
2017-05-18T05:34:33.964Z,1011.37
2017-05-18T05:35:33.996Z,1011.42
2017-05-18T05:36:34.032Z,1011.43
2017-05-18T05:37:34.069Z,1011.43
2017-05-18T05:38:34.106Z,1011.4
2017-05-18T05:39:34.140Z,1011.39
2017-05-18T05:40:34.177Z,1011.44
2017-05-18T05:41:34.214Z,1011.45
2017-05-18T05:42:34.251Z,1011.42
2017-05-18T05:43:34.287Z,1011.44
2017-05-18T05:44:34.324Z,1011.39
2017-05-18T05:45:34.361Z,1011.38
2017-05-18T05:46:34.399Z,1011.41
2017-05-18T05:47:34.436Z,1011.38
2017-05-18T05:49:34.511Z,1011.45
2017-05-18T05:50:34.547Z,1011.39
2017-05-18T05:51:34.585Z,1011.35
2017-05-18T05:52:34.623Z,1011.37
2017-05-18T05:53:34.660Z,1011.36
2017-05-18T05:54:34.698Z,1011.39
2017-05-18T05:55:34.735Z,1011.36
2017-05-18T05:56:34.772Z,1011.31
2017-05-18T05:57:34.810Z,1011.37
2017-05-18T05:58:34.848Z,1011.37
2017-05-18T05:59:34.885Z,1011.31
2017-05-18T06:00:34.923Z,1011.29
2017-05-18T06:01:34.960Z,1011.29
2017-05-18T06:02:34.999Z,1011.31
2017-05-18T06:03:35.037Z,1011.34
2017-05-18T06:04:35.076Z,1011.44
2017-05-18T06:05:35.111Z,1011.48
2017-05-18T06:06:35.150Z,1011.57
2017-05-18T06:07:35.189Z,1011.67
2017-05-18T06:08:35.232Z,1011.75
2017-05-18T06:09:35.264Z,1011.76
2017-05-18T06:10:35.303Z,1011.74
2017-05-18T06:11:35.341Z,1011.78
2017-05-18T06:12:35.379Z,1011.78
2017-05-18T06:13:35.416Z,1011.73
2017-05-18T06:14:35.455Z,1011.8
2017-05-18T06:15:35.494Z,1011.78
2017-05-18T06:16:35.531Z,1011.77
2017-05-18T06:17:35.569Z,1011.75
2017-05-18T06:18:35.608Z,1011.74
2017-05-18T06:19:35.646Z,1011.72
2017-05-18T06:21:35.723Z,1011.68
2017-05-18T06:22:35.763Z,1011.67
2017-05-18T06:23:35.800Z,1011.65
2017-05-18T06:24:35.839Z,1011.64
2017-05-18T06:25:35.878Z,1011.63
2017-05-18T06:26:35.918Z,1011.66
2017-05-18T06:27:35.955Z,1011.68
2017-05-18T06:28:35.994Z,1011.69
2017-05-18T06:29:36.033Z,1011.66
2017-05-18T06:30:36.071Z,1011.67
2017-05-18T06:31:36.114Z,1011.61
2017-05-18T06:32:36.150Z,1011.68
2017-05-18T06:33:36.188Z,1011.73
2017-05-18T06:34:36.226Z,1011.7
2017-05-18T06:35:36.265Z,1011.76
2017-05-18T06:37:36.344Z,1011.76
2017-05-18T06:38:36.380Z,1011.74
2017-05-18T06:39:36.419Z,1011.8
2017-05-18T06:40:36.458Z,1011.89
2017-05-18T06:41:36.498Z,1011.9
2017-05-18T06:42:36.535Z,1011.91
2017-05-18T06:43:36.574Z,1011.94
2017-05-18T06:44:36.614Z,1011.95
2017-05-18T06:45:36.651Z,1011.98
2017-05-18T06:46:36.691Z,1012.04
2017-05-18T06:47:36.730Z,1012.02
2017-05-18T06:48:36.770Z,1012.14
2017-05-18T06:49:36.807Z,1012.16
2017-05-18T06:50:36.847Z,1012.2
2017-05-18T06:51:36.886Z,1012.15
2017-05-18T06:53:36.963Z,1012.28
2017-05-18T06:54:37.002Z,1012.29
2017-05-18T06:55:37.041Z,1012.33
2017-05-18T06:56:37.080Z,1012.38
2017-05-18T06:57:37.122Z,1012.4
2017-05-18T06:58:37.158Z,1012.41
2017-05-18T06:59:37.197Z,1012.46
2017-05-18T07:00:37.235Z,1012.44
2017-05-18T07:01:37.273Z,1012.52
2017-05-18T07:02:37.313Z,1012.53
2017-05-18T07:03:37.351Z,1012.52
2017-05-18T07:04:37.390Z,1012.44
2017-05-18T07:05:37.429Z,1012.44
2017-05-18T07:06:37.467Z,1012.37
2017-05-18T07:07:37.506Z,1012.42
2017-05-18T07:09:37.583Z,1012.4
2017-05-18T07:10:37.623Z,1012.27
2017-05-18T07:11:37.660Z,1012.17
2017-05-18T07:12:37.699Z,1012.19
2017-05-18T07:13:37.738Z,1012.3
2017-05-18T07:14:37.776Z,1012.26
2017-05-18T07:15:37.815Z,1012.25
2017-05-18T07:16:37.854Z,1012.23
2017-05-18T07:17:37.894Z,1012.07
2017-05-18T07:18:37.931Z,1012.01
2017-05-18T07:19:37.970Z,1012
2017-05-18T07:20:38.009Z,1011.98
2017-05-18T07:21:38.050Z,1011.86
2017-05-18T07:22:38.089Z,1011.8
2017-05-18T07:24:38.166Z,1011.81
2017-05-18T07:25:38.205Z,1011.72
2017-05-18T07:26:38.244Z,1011.58
2017-05-18T07:27:38.284Z,1011.5
2017-05-18T07:28:38.323Z,1011.47
2017-05-18T07:29:38.361Z,1011.44
2017-05-18T07:30:38.401Z,1011.39
2017-05-18T07:31:38.440Z,1011.33
2017-05-18T07:32:38.478Z,1011.24
2017-05-18T07:33:38.517Z,1011.27
2017-05-18T07:34:38.557Z,1011.25
2017-05-18T07:35:38.596Z,1011.15
2017-05-18T07:36:38.636Z,1011.09
2017-05-18T07:37:38.673Z,1011.08
2017-05-18T07:38:38.713Z,1011.05
2017-05-18T07:39:38.753Z,1011
2017-05-18T07:40:38.790Z,1011.02
2017-05-18T07:41:38.830Z,1010.94
2017-05-18T07:42:38.869Z,1010.92
2017-05-18T07:43:38.907Z,1010.69
2017-05-18T07:44:38.946Z,1010.67
2017-05-18T07:45:38.985Z,1010.64
2017-05-18T07:46:39.024Z,1010.62
2017-05-18T07:47:39.063Z,1010.64
2017-05-18T07:48:39.102Z,1010.62
2017-05-18T07:49:39.140Z,1010.64
2017-05-18T07:50:39.180Z,1010.64
2017-05-18T07:51:39.218Z,1010.67
2017-05-18T07:52:39.257Z,1010.64
2017-05-18T07:53:39.296Z,1010.61
2017-05-18T07:54:39.334Z,1010.63
2017-05-18T07:56:39.411Z,1010.66
2017-05-18T07:57:39.451Z,1010.62
2017-05-18T07:58:39.489Z,1010.61
2017-05-18T07:59:39.527Z,1010.46
2017-05-18T08:00:39.566Z,1010.59
2017-05-18T08:01:39.605Z,1010.51
2017-05-18T08:02:39.644Z,1010.5
2017-05-18T08:03:39.681Z,1010.46
2017-05-18T08:04:39.720Z,1010.44
2017-05-18T08:05:39.759Z,1010.38
2017-05-18T08:06:39.796Z,1010.49
2017-05-18T08:07:39.834Z,1010.61
2017-05-18T08:08:39.874Z,1010.57
2017-05-18T08:09:39.911Z,1010.5
2017-05-18T08:10:39.950Z,1010.46
2017-05-18T08:12:40.027Z,1010.49
2017-05-18T08:13:40.065Z,1010.45
2017-05-18T08:14:40.103Z,1010.39
2017-05-18T08:15:40.142Z,1010.4
2017-05-18T08:16:40.182Z,1010.39
2017-05-18T08:17:40.225Z,1010.42
2017-05-18T08:18:40.256Z,1010.34
2017-05-18T08:19:40.294Z,1010.32
2017-05-18T08:20:40.331Z,1010.26
2017-05-18T08:21:40.370Z,1010.21
2017-05-18T08:22:40.408Z,1010.27
2017-05-18T08:23:40.445Z,1010.24
2017-05-18T08:24:40.484Z,1010.34
2017-05-18T08:25:40.522Z,1010.47
2017-05-18T08:26:40.560Z,1010.49
2017-05-18T08:28:40.635Z,1010.46
2017-05-18T08:29:40.673Z,1010.45
2017-05-18T08:30:40.711Z,1010.39
2017-05-18T08:31:40.748Z,1010.31
2017-05-18T08:32:40.786Z,1010.33
2017-05-18T08:33:40.824Z,1010.31
2017-05-18T08:34:40.862Z,1010.37
2017-05-18T08:35:40.898Z,1010.32
2017-05-18T08:36:40.936Z,1010.29
2017-05-18T08:37:40.974Z,1010.27
2017-05-18T08:38:41.011Z,1010.22
2017-05-18T08:39:41.048Z,1010.2
2017-05-18T08:40:41.086Z,1010.17
2017-05-18T08:41:41.125Z,1010.15
2017-05-18T08:42:41.163Z,1010.13
2017-05-18T08:44:41.235Z,1010.11
2017-05-18T08:45:41.273Z,1010.02
2017-05-18T08:46:41.310Z,1009.96
2017-05-18T08:47:41.348Z,1009.91
2017-05-18T08:48:41.385Z,1009.89
2017-05-18T08:49:41.421Z,1009.91
2017-05-18T08:50:41.458Z,1009.92
2017-05-18T08:51:41.496Z,1009.95
2017-05-18T08:52:41.534Z,1009.88
2017-05-18T08:53:41.570Z,1009.88
2017-05-18T08:54:41.607Z,1009.84
2017-05-18T08:55:41.645Z,1009.85
2017-05-18T08:56:41.682Z,1009.82
2017-05-18T08:57:41.720Z,1009.79
2017-05-18T08:59:41.795Z,1009.85
2017-05-18T09:00:41.830Z,1009.83
2017-05-18T09:01:41.868Z,1009.82
2017-05-18T09:02:41.905Z,1009.82
2017-05-18T09:03:41.942Z,1009.78
2017-05-18T09:04:41.979Z,1009.76
2017-05-18T09:05:42.016Z,1009.72
2017-05-18T09:06:42.053Z,1009.75
2017-05-18T09:07:42.094Z,1009.7
2017-05-18T09:08:42.126Z,1009.78
2017-05-18T09:09:42.166Z,1009.7
2017-05-18T09:10:42.202Z,1009.68
2017-05-18T09:11:42.237Z,1009.65
2017-05-18T09:12:42.275Z,1009.6
2017-05-18T09:13:42.312Z,1009.62
2017-05-18T09:14:42.350Z,1009.66
2017-05-18T09:15:42.382Z,1009.62
2017-05-18T09:16:42.419Z,1009.59
2017-05-18T09:17:42.459Z,1009.63
2017-05-18T09:18:42.493Z,1009.56
2017-05-18T09:19:42.528Z,1009.53
2017-05-18T09:20:42.566Z,1009.51
2017-05-18T09:21:42.607Z,1009.5
2017-05-18T09:22:42.646Z,1009.52
2017-05-18T09:23:42.682Z,1009.53
2017-05-18T09:24:42.720Z,1009.52
2017-05-18T09:25:42.806Z,1009.52
2017-05-18T09:26:42.793Z,1009.52
2017-05-18T09:27:42.829Z,1009.52
2017-05-18T09:28:42.864Z,1009.5
2017-05-18T09:29:42.904Z,1009.45
2017-05-18T09:31:42.975Z,1009.43
2017-05-18T09:32:43.014Z,1009.45
2017-05-18T09:33:43.049Z,1009.39
2017-05-18T09:34:43.084Z,1009.38
2017-05-18T09:35:43.121Z,1009.36
2017-05-18T09:36:43.159Z,1009.33
2017-05-18T09:37:43.190Z,1009.38
2017-05-18T09:38:43.227Z,1009.36
2017-05-18T09:39:43.265Z,1009.4
2017-05-18T09:40:43.301Z,1009.43
2017-05-18T09:41:43.337Z,1009.39
2017-05-18T09:42:43.374Z,1009.42
2017-05-18T09:43:43.406Z,1009.32
2017-05-18T09:44:43.446Z,1009.39
2017-05-18T09:45:43.481Z,1009.41
2017-05-18T09:47:43.553Z,1009.32
2017-05-18T09:48:43.588Z,1009.35
2017-05-18T09:49:43.625Z,1009.24
2017-05-18T09:50:43.657Z,1009.27
2017-05-18T09:51:43.696Z,1009.27
2017-05-18T09:52:43.734Z,1009.27
2017-05-18T09:53:43.770Z,1009.3
2017-05-18T09:54:43.802Z,1009.29
2017-05-18T09:55:43.837Z,1009.26
2017-05-18T09:56:43.873Z,1009.28
2017-05-18T09:57:43.906Z,1009.29
2017-05-18T09:58:43.945Z,1009.25
2017-05-18T09:59:43.977Z,1009.24
2017-05-18T10:00:44.017Z,1009.29
2017-05-18T10:01:44.052Z,1009.28
2017-05-18T10:03:44.122Z,1009.26
2017-05-18T10:04:44.158Z,1009.28
2017-05-18T10:05:44.196Z,1009.3
2017-05-18T10:06:44.229Z,1009.26
2017-05-18T10:07:44.261Z,1009.22
2017-05-18T10:08:44.301Z,1009.21
2017-05-18T10:09:44.337Z,1009.2
2017-05-18T10:10:44.409Z,1009.21
2017-05-18T10:11:44.407Z,1009.2
2017-05-18T10:12:44.443Z,1009.17
2017-05-18T10:13:44.480Z,1009.17
2017-05-18T10:14:44.510Z,1009.23
2017-05-18T10:15:44.549Z,1009.23
2017-05-18T10:16:44.587Z,1009.24
2017-05-18T10:17:44.620Z,1009.24
2017-05-18T10:19:44.691Z,1009.23
2017-05-18T10:20:44.729Z,1009.14
2017-05-18T10:21:44.763Z,1009.04
2017-05-18T10:22:44.800Z,1009.15
2017-05-18T10:23:44.829Z,1009.16
2017-05-18T10:24:44.869Z,1009.1
2017-05-18T10:25:44.901Z,1009.1
2017-05-18T10:26:44.940Z,1009.11
2017-05-18T10:27:44.972Z,1009.12
2017-05-18T10:28:45.012Z,1009.03
2017-05-18T10:29:45.046Z,1009.06
2017-05-18T10:30:45.087Z,1009.07
2017-05-18T10:31:45.120Z,1009.06
2017-05-18T10:32:45.156Z,1009.08
2017-05-18T10:34:45.226Z,1009.02
2017-05-18T10:35:45.259Z,1009.02
2017-05-18T10:36:45.294Z,1009.03
2017-05-18T10:37:45.325Z,1009.01
2017-05-18T10:38:45.363Z,1009.03
2017-05-18T10:39:45.397Z,1009.06
2017-05-18T10:40:45.434Z,1009.04
2017-05-18T10:41:45.464Z,1009.08
2017-05-18T10:42:45.501Z,1009.01
2017-05-18T10:43:45.536Z,1009.03
2017-05-18T10:44:45.574Z,1008.99
2017-05-18T10:45:45.607Z,1009.01
2017-05-18T10:46:45.638Z,1008.98
2017-05-18T10:47:45.677Z,1008.99
2017-05-18T10:48:45.711Z,1009
2017-05-18T10:49:45.747Z,1009.01
2017-05-18T10:50:45.780Z,1008.96
2017-05-18T10:51:45.815Z,1008.98
2017-05-18T10:52:45.848Z,1008.92
2017-05-18T10:53:45.879Z,1008.88
2017-05-18T10:54:45.917Z,1008.9
2017-05-18T10:55:45.951Z,1008.86
2017-05-18T10:56:45.988Z,1008.88
2017-05-18T10:57:46.020Z,1008.85
2017-05-18T10:58:46.055Z,1008.94
2017-05-18T10:59:46.090Z,1008.89
2017-05-18T11:00:46.124Z,1008.93
2017-05-18T11:01:46.157Z,1008.87
2017-05-18T11:02:46.188Z,1008.88
2017-05-18T11:03:46.226Z,1008.86
2017-05-18T11:04:46.261Z,1008.83
2017-05-18T11:06:46.327Z,1008.8
2017-05-18T11:07:46.362Z,1008.83
2017-05-18T11:08:46.395Z,1008.82
2017-05-18T11:09:46.428Z,1008.87
2017-05-18T11:10:46.462Z,1008.87
2017-05-18T11:11:46.494Z,1008.82
2017-05-18T11:12:46.528Z,1008.8
2017-05-18T11:13:46.565Z,1008.64
2017-05-18T11:14:46.599Z,1008.76
2017-05-18T11:15:46.630Z,1008.77
2017-05-18T11:16:46.664Z,1008.74
2017-05-18T11:17:46.694Z,1008.72
2017-05-18T11:18:46.731Z,1008.75
2017-05-18T11:19:46.764Z,1008.78
2017-05-18T11:20:46.799Z,1008.76
2017-05-18T11:22:46.862Z,1008.73
2017-05-18T11:23:46.898Z,1008.77
2017-05-18T11:24:46.927Z,1008.76
2017-05-18T11:25:46.964Z,1008.79
2017-05-18T11:26:46.993Z,1008.74
2017-05-18T11:27:47.030Z,1008.71
2017-05-18T11:28:47.063Z,1008.74
2017-05-18T11:29:47.098Z,1008.62
2017-05-18T11:30:47.128Z,1008.63
2017-05-18T11:31:47.164Z,1008.71
2017-05-18T11:32:47.193Z,1008.64
2017-05-18T11:33:47.226Z,1008.61
2017-05-18T11:34:47.261Z,1008.58
2017-05-18T11:35:47.293Z,1008.63
2017-05-18T11:36:47.324Z,1008.64
2017-05-18T11:38:47.393Z,1008.62
2017-05-18T11:39:47.427Z,1008.6
2017-05-18T11:40:47.460Z,1008.56
2017-05-18T11:41:47.491Z,1008.57
2017-05-18T11:42:47.525Z,1008.6
2017-05-18T11:43:47.555Z,1008.57
2017-05-18T11:44:47.593Z,1008.53
2017-05-18T11:45:47.623Z,1008.56
2017-05-18T11:46:47.652Z,1008.58
2017-05-18T11:47:47.686Z,1008.48
2017-05-18T11:48:47.721Z,1008.54
2017-05-18T11:49:47.755Z,1008.45
2017-05-18T11:50:47.788Z,1008.51
2017-05-18T11:51:47.821Z,1008.47
2017-05-18T11:52:47.854Z,1008.48
2017-05-18T11:54:47.921Z,1008.49
2017-05-18T11:55:47.949Z,1008.49
2017-05-18T11:56:47.987Z,1008.49
2017-05-18T11:57:48.013Z,1008.45
2017-05-18T11:58:48.050Z,1008.38
2017-05-18T11:59:48.083Z,1008.39
2017-05-18T12:00:48.113Z,1008.47
2017-05-18T12:01:48.149Z,1008.35
2017-05-18T12:02:48.178Z,1008.37
2017-05-18T12:03:48.213Z,1008.39
2017-05-18T12:04:48.243Z,1008.38
2017-05-18T12:05:48.276Z,1008.38
2017-05-18T12:06:48.312Z,1008.36
2017-05-18T12:07:48.347Z,1008.35
2017-05-18T12:09:48.412Z,1008.34
2017-05-18T12:10:48.444Z,1008.35
2017-05-18T12:11:48.472Z,1008.3
2017-05-18T12:12:48.506Z,1008.35
2017-05-18T12:13:48.541Z,1008.27
2017-05-18T12:14:48.572Z,1008.3
2017-05-18T12:15:48.607Z,1008.29
2017-05-18T12:16:48.639Z,1008.28
2017-05-18T12:17:48.671Z,1008.25
2017-05-18T12:18:48.707Z,1008.27
2017-05-18T12:19:48.737Z,1008.24
2017-05-18T12:20:48.770Z,1008.23
2017-05-18T12:21:48.799Z,1008.21
2017-05-18T12:22:48.835Z,1008.19
2017-05-18T12:23:48.870Z,1008.19
2017-05-18T12:24:48.902Z,1008.18
2017-05-18T12:25:48.930Z,1008.15
2017-05-18T12:26:48.966Z,1008.14
2017-05-18T12:27:48.998Z,1008.15
2017-05-18T12:28:49.035Z,1008.15
2017-05-18T12:29:49.061Z,1008.17
2017-05-18T12:30:49.096Z,1008.11
2017-05-18T12:31:49.129Z,1008.17
2017-05-18T12:32:49.163Z,1008.09
2017-05-18T12:33:49.195Z,1008.11
2017-05-18T12:34:49.223Z,1008.1
2017-05-18T12:35:49.259Z,1008.09
2017-05-18T12:36:49.290Z,1008.08
2017-05-18T12:37:49.323Z,1008.08
2017-05-18T12:38:49.356Z,1008.03
2017-05-18T12:39:49.388Z,1008.03
2017-05-18T12:41:49.451Z,1008.05
2017-05-18T12:42:49.486Z,1008.06
2017-05-18T12:43:49.518Z,1008.02
2017-05-18T12:44:49.551Z,1008.01
2017-05-18T12:45:49.583Z,1008.04
2017-05-18T12:46:49.617Z,1007.99
2017-05-18T12:47:49.648Z,1008.03
2017-05-18T12:48:49.681Z,1007.98
2017-05-18T12:49:49.709Z,1007.97